createdAt,value
2018-12-14T00:01:48.890Z,20.23
2018-12-14T00:04:27.487Z,19.57
2018-12-14T00:07:01.809Z,20.13
2018-12-14T00:09:34.992Z,18.33
2018-12-14T00:12:07.611Z,19.77
2018-12-14T00:14:40.132Z,19.43
2018-12-14T00:17:14.027Z,20.03
2018-12-14T00:19:47.405Z,20.27
2018-12-14T00:22:21.170Z,21.60
2018-12-14T00:24:52.651Z,21.03
2018-12-14T00:27:26.176Z,20.80
2018-12-14T00:29:59.392Z,20.17
2018-12-14T00:32:32.334Z,20.57
2018-12-14T00:35:05.859Z,19.80
2018-12-14T00:37:38.913Z,20.73
2018-12-14T00:40:16.993Z,20.67
2018-12-14T00:42:49.428Z,23.20
2018-12-14T00:45:21.769Z,21.60
2018-12-14T00:47:54.700Z,22.40
2018-12-14T00:50:27.817Z,21.20
2018-12-14T00:53:00.980Z,22.00
2018-12-14T00:55:37.946Z,21.20
2018-12-14T00:58:10.225Z,21.73
2018-12-14T01:00:47.421Z,21.70
2018-12-14T01:03:19.735Z,20.77
2018-12-14T01:05:52.764Z,20.97
2018-12-14T01:08:29.762Z,21.03
2018-12-14T01:11:02.740Z,21.70
2018-12-14T01:13:35.265Z,20.87
2018-12-14T01:16:07.579Z,22.27
2018-12-14T01:18:44.268Z,21.20
2018-12-14T01:21:20.491Z,21.30
2018-12-14T01:23:56.532Z,21.27
2018-12-14T01:26:29.967Z,22.30
2018-12-14T01:29:06.887Z,20.73
2018-12-14T01:31:43.145Z,22.67
2018-12-14T01:34:15.420Z,21.90
2018-12-14T01:36:47.760Z,21.00
2018-12-14T01:39:24.226Z,20.90
2018-12-14T01:42:04.855Z,21.47
2018-12-14T01:44:35.483Z,22.43
2018-12-14T01:47:08.587Z,22.80
2018-12-14T01:49:41.679Z,25.10
2018-12-14T01:52:14.743Z,23.13
2018-12-14T01:54:47.161Z,21.50
2018-12-14T01:57:24.467Z,23.27
2018-12-14T01:59:57.256Z,21.63
2018-12-14T02:02:29.785Z,22.70
2018-12-14T02:05:03.029Z,22.00
2018-12-14T02:07:35.622Z,22.17
2018-12-14T02:10:08.230Z,21.90
2018-12-14T02:12:39.181Z,22.23
2018-12-14T02:15:11.983Z,22.73
2018-12-14T02:17:48.214Z,22.77
2018-12-14T02:20:19.260Z,23.33
2018-12-14T02:22:52.250Z,21.10
2018-12-14T02:25:25.313Z,20.97
2018-12-14T02:27:58.784Z,21.63
2018-12-14T02:30:45.281Z,22.50
2018-12-14T02:33:22.603Z,21.97
2018-12-14T02:35:58.844Z,20.50
2018-12-14T02:38:35.469Z,20.87
2018-12-14T02:41:08.559Z,22.47
2018-12-14T02:43:41.581Z,20.33
2018-12-14T02:46:16.617Z,20.27
2018-12-14T02:48:51.854Z,20.20
2018-12-14T02:51:26.666Z,19.60
2018-12-14T02:53:59.357Z,21.43
2018-12-14T02:56:32.861Z,21.40
2018-12-14T02:59:05.548Z,21.23
2018-12-14T03:01:42.557Z,20.23
2018-12-14T03:04:15.699Z,20.83
2018-12-14T03:06:53.685Z,19.03
2018-12-14T03:09:31.070Z,20.53
2018-12-14T03:12:04.385Z,19.67
2018-12-14T03:14:42.575Z,19.73
2018-12-14T03:17:17.418Z,19.03
2018-12-14T03:19:54.193Z,19.27
2018-12-14T03:22:38.871Z,18.77
2018-12-14T03:25:20.745Z,19.87
2018-12-14T03:28:01.705Z,19.73
2018-12-14T03:30:37.385Z,20.33
2018-12-14T03:33:13.110Z,20.93
2018-12-14T03:35:52.060Z,19.23
2018-12-14T03:38:25.836Z,19.37
2018-12-14T03:41:02.835Z,20.63
2018-12-14T03:43:40.458Z,19.63
2018-12-14T03:46:15.152Z,18.83
2018-12-14T03:48:51.191Z,18.83
2018-12-14T03:51:28.438Z,18.67
2018-12-14T03:54:06.317Z,18.93
2018-12-14T03:56:39.470Z,19.80
2018-12-14T03:59:12.340Z,18.87
2018-12-14T04:01:45.043Z,18.13
2018-12-14T04:04:17.180Z,18.10
2018-12-14T04:06:50.186Z,18.37
2018-12-14T04:09:23.405Z,19.17
2018-12-14T04:11:56.500Z,18.73
2018-12-14T04:14:28.950Z,19.43
2018-12-14T04:17:02.015Z,18.93
2018-12-14T04:19:32.320Z,18.20
2018-12-14T04:22:05.431Z,18.43
2018-12-14T04:24:38.341Z,18.93
2018-12-14T04:27:11.234Z,18.43
2018-12-14T04:29:43.686Z,18.27
2018-12-14T04:32:16.725Z,18.13
2018-12-14T04:34:49.194Z,20.00
2018-12-14T04:37:26.573Z,18.03
2018-12-14T04:40:00.896Z,18.50
2018-12-14T04:42:34.126Z,20.50
2018-12-14T04:50:15.502Z,19.03
2018-12-14T04:52:48.867Z,20.07
2018-12-14T04:55:22.215Z,21.77
2018-12-14T04:57:55.584Z,20.73
2018-12-14T05:00:27.958Z,22.93
2018-12-14T05:03:02.632Z,20.67
2018-12-14T05:05:37.866Z,22.70
2018-12-14T05:08:10.903Z,21.20
2018-12-14T05:10:47.883Z,22.90
2018-12-14T05:13:23.201Z,23.73
2018-12-14T05:16:01.146Z,23.73
2018-12-14T05:18:39.854Z,22.90
2018-12-14T05:21:19.788Z,23.10
2018-12-14T05:23:57.535Z,23.17
2018-12-14T05:26:30.776Z,25.50
2018-12-14T05:29:17.050Z,24.90
2018-12-14T05:31:54.263Z,24.57
2018-12-14T05:34:28.118Z,24.53
2018-12-14T05:37:01.448Z,26.07
2018-12-14T05:39:41.567Z,25.60
2018-12-14T05:42:23.230Z,25.47
2018-12-14T05:44:57.606Z,26.57
2018-12-14T05:47:36.482Z,27.40
2018-12-14T06:12:51.860Z,33.70
2018-12-14T06:15:27.772Z,32.30
2018-12-14T06:18:05.630Z,31.63
2018-12-14T06:20:39.266Z,29.80
2018-12-14T06:23:16.231Z,31.97
2018-12-14T06:25:49.188Z,31.73
2018-12-14T06:28:22.642Z,31.73
2018-12-14T06:31:01.198Z,31.60
2018-12-14T06:33:35.758Z,31.87
2018-12-14T06:36:09.857Z,31.80
2018-12-14T06:38:43.961Z,31.07
2018-12-14T06:41:16.936Z,30.50
2018-12-14T06:43:47.880Z,31.63
2018-12-14T06:46:21.091Z,32.33
2018-12-14T06:48:55.346Z,33.70
2018-12-14T06:51:38.538Z,29.50
2018-12-14T06:54:15.761Z,30.77
2018-12-14T06:56:49.368Z,29.53
2018-12-14T06:59:27.900Z,29.40
2018-12-14T07:01:59.283Z,28.87
2018-12-14T07:04:32.540Z,28.13
2018-12-14T07:07:05.713Z,29.00
2018-12-14T07:09:38.514Z,28.03
2018-12-14T07:12:12.355Z,27.80
2018-12-14T07:14:49.955Z,27.30
2018-12-14T07:17:24.695Z,27.57
2018-12-14T07:19:58.663Z,27.43
2018-12-14T07:22:35.096Z,27.23
2018-12-14T07:25:09.155Z,28.57
2018-12-14T07:27:47.236Z,28.13
2018-12-14T07:30:21.634Z,29.30
2018-12-14T07:32:59.154Z,27.87
2018-12-14T07:35:32.779Z,25.23
2018-12-14T07:38:08.855Z,25.07
2018-12-14T07:40:42.072Z,22.90
2018-12-14T07:43:14.814Z,23.70
2018-12-14T07:45:50.883Z,23.97
2018-12-14T07:48:28.170Z,23.47
2018-12-14T07:51:00.942Z,22.57
2018-12-14T07:53:40.286Z,24.73
2018-12-14T07:56:18.748Z,23.17
2018-12-14T07:58:51.568Z,24.90
2018-12-14T08:01:24.412Z,22.43
2018-12-14T08:04:02.757Z,22.47
2018-12-14T08:06:36.212Z,23.63
2018-12-14T08:09:13.472Z,23.20
2018-12-14T08:11:47.930Z,25.17
2018-12-14T08:14:21.729Z,24.13
2018-12-14T08:16:59.120Z,24.97
2018-12-14T08:19:32.210Z,24.13
2018-12-14T08:22:06.045Z,23.73
2018-12-14T08:24:39.742Z,24.43
2018-12-14T08:27:12.683Z,23.07
2018-12-14T08:29:49.969Z,24.53
2018-12-14T08:32:22.272Z,23.73
2018-12-14T08:34:55.453Z,23.13
2018-12-14T08:37:32.566Z,22.97
2018-12-14T08:40:06.815Z,24.63
2018-12-14T08:42:39.668Z,25.00
2018-12-14T08:45:13.625Z,23.37
2018-12-14T08:47:46.968Z,25.50
2018-12-14T08:50:20.120Z,25.20
2018-12-14T08:52:53.219Z,24.43
2018-12-14T08:55:24.288Z,23.57
2018-12-14T08:57:57.226Z,22.40
2018-12-14T09:00:30.596Z,22.00
2018-12-14T09:03:07.799Z,22.30
2018-12-14T09:05:40.464Z,22.57
2018-12-14T09:08:12.770Z,19.67
2018-12-14T09:10:50.772Z,21.80
2018-12-14T09:13:29.647Z,22.00
2018-12-14T09:16:05.989Z,21.70
2018-12-14T09:18:43.927Z,21.07
2018-12-14T09:26:19.758Z,23.67
2018-12-14T09:28:53.907Z,21.30
2018-12-14T09:31:28.733Z,21.13
2018-12-14T09:34:01.204Z,21.67
2018-12-14T09:36:34.244Z,20.17
2018-12-14T09:39:09.144Z,21.47
2018-12-14T09:41:46.150Z,22.37
2018-12-14T09:44:24.386Z,21.27
2018-12-14T09:46:57.577Z,20.97
2018-12-14T09:49:30.906Z,20.83
2018-12-14T09:52:07.224Z,21.53
2018-12-14T09:54:41.340Z,20.97
2018-12-14T09:57:14.524Z,21.87
2018-12-14T09:59:50.754Z,19.50
2018-12-14T10:02:21.703Z,20.87
2018-12-14T10:04:59.282Z,21.87
2018-12-14T10:07:31.870Z,20.40
2018-12-14T10:10:06.796Z,21.83
2018-12-14T10:12:39.804Z,21.50
2018-12-14T10:15:13.095Z,20.97
2018-12-14T10:17:49.365Z,20.17
2018-12-14T10:20:23.467Z,21.20
2018-12-14T10:23:02.373Z,19.17
2018-12-14T10:25:39.550Z,19.50
2018-12-14T10:35:43.426Z,18.83
2018-12-14T10:38:16.637Z,18.73
2018-12-14T10:40:49.279Z,18.10
2018-12-14T10:43:21.874Z,18.80
2018-12-14T10:46:01.870Z,17.90
2018-12-14T10:48:35.019Z,18.13
2018-12-14T10:51:08.175Z,20.03
2018-12-14T10:53:41.393Z,20.90
2018-12-14T10:56:15.890Z,22.37
2018-12-14T10:58:52.256Z,21.77
2018-12-14T11:01:30.534Z,20.43
2018-12-14T11:04:03.323Z,21.93
2018-12-14T11:06:39.890Z,20.23
2018-12-14T11:09:17.784Z,22.07
2018-12-14T11:11:51.227Z,20.23
2018-12-14T11:14:24.126Z,18.63
2018-12-14T11:16:57.683Z,20.43
2018-12-14T11:19:34.834Z,21.43
2018-12-14T11:22:26.169Z,21.93
2018-12-14T11:25:03.302Z,21.33
2018-12-14T11:27:39.923Z,22.00
2018-12-14T11:30:17.378Z,23.43
2018-12-14T11:32:53.585Z,22.07
2018-12-14T11:35:29.839Z,24.10
2018-12-14T11:50:36.805Z,22.57
2018-12-14T11:53:18.050Z,22.47
2018-12-14T11:55:50.923Z,23.13
2018-12-14T11:58:29.209Z,21.83
2018-12-14T12:01:07.439Z,22.60
2018-12-14T12:03:42.965Z,23.37
2018-12-14T12:06:16.535Z,24.07
2018-12-14T12:08:53.548Z,24.07
2018-12-14T12:11:26.802Z,22.20
2018-12-14T12:14:00.127Z,25.33
2018-12-14T12:16:34.192Z,23.37
2018-12-14T12:19:12.328Z,23.83
2018-12-14T12:21:49.838Z,24.97
2018-12-14T12:24:28.148Z,23.03
2018-12-14T12:27:04.650Z,23.37
2018-12-14T12:29:38.094Z,24.90
2018-12-14T12:32:11.199Z,24.73
2018-12-14T12:34:47.814Z,24.50
2018-12-14T12:37:25.156Z,22.50
2018-12-14T12:39:59.438Z,22.13
2018-12-14T12:42:32.862Z,21.90
2018-12-14T12:45:07.729Z,24.20
2018-12-14T12:47:43.990Z,24.00
2018-12-14T12:50:17.493Z,24.80
2018-12-14T12:52:48.468Z,24.27
2018-12-14T12:55:25.431Z,24.03
2018-12-14T12:58:03.665Z,22.00
2018-12-14T13:00:34.788Z,21.97
2018-12-14T13:03:07.968Z,23.97
2018-12-14T13:05:41.770Z,23.17
2018-12-14T13:08:15.175Z,22.53
2018-12-14T13:10:52.003Z,23.67
2018-12-14T13:13:23.363Z,21.73
2018-12-14T13:15:56.997Z,22.40
2018-12-14T13:18:33.876Z,22.97
2018-12-14T13:21:07.046Z,23.10
2018-12-14T13:23:39.873Z,22.43
2018-12-14T13:26:12.888Z,23.03
2018-12-14T13:28:49.181Z,24.50
2018-12-14T13:31:21.577Z,22.57
2018-12-14T13:33:54.980Z,22.37
2018-12-14T13:36:28.097Z,22.30
2018-12-14T13:39:06.177Z,19.70
2018-12-14T13:41:36.794Z,21.40
2018-12-14T13:44:09.814Z,18.57
2018-12-14T13:46:42.955Z,19.13
2018-12-14T13:49:15.897Z,22.00
2018-12-14T13:51:52.625Z,21.03
2018-12-14T13:54:26.689Z,21.43
2018-12-14T13:57:03.868Z,22.30
2018-12-14T13:59:36.005Z,23.93
2018-12-14T14:02:08.236Z,21.33
2018-12-14T14:04:40.920Z,18.80
2018-12-14T14:07:13.095Z,17.57
2018-12-14T14:09:50.208Z,16.97
2018-12-14T14:12:30.848Z,17.20
2018-12-14T14:15:07.029Z,16.47
2018-12-14T14:17:44.090Z,16.67
2018-12-14T14:20:17.068Z,16.60
2018-12-14T14:22:49.453Z,16.47
2018-12-14T14:25:26.640Z,18.03
2018-12-14T14:27:59.917Z,16.63
2018-12-14T14:30:32.949Z,17.93
2018-12-14T14:33:10.050Z,18.20
2018-12-14T14:35:40.944Z,18.33
2018-12-14T14:38:17.059Z,17.30
2018-12-14T14:40:50.060Z,17.47
2018-12-14T14:43:22.551Z,19.53
2018-12-14T14:45:59.482Z,20.40
2018-12-14T14:48:35.862Z,19.80
2018-12-14T14:51:09.306Z,19.83
2018-12-14T14:53:41.725Z,19.73
2018-12-14T14:56:18.912Z,20.77
2018-12-14T14:58:55.133Z,17.97
2018-12-14T15:01:27.251Z,18.93
2018-12-14T15:04:00.261Z,19.50
2018-12-14T15:06:33.935Z,19.80
2018-12-14T15:09:10.723Z,19.83
2018-12-14T15:11:43.370Z,21.00
2018-12-14T15:14:15.571Z,21.67
2018-12-14T15:16:47.800Z,21.57
2018-12-14T15:19:25.130Z,22.60
2018-12-14T15:22:04.371Z,21.60
2018-12-14T15:24:36.478Z,21.63
2018-12-14T15:27:08.639Z,25.27
2018-12-14T15:29:45.077Z,23.93
2018-12-14T15:32:15.482Z,23.27
2018-12-14T15:34:51.513Z,23.73
2018-12-14T15:37:23.713Z,23.87
2018-12-14T15:39:59.851Z,23.47
2018-12-14T15:42:36.239Z,23.97
2018-12-14T15:45:13.256Z,23.47
2018-12-14T15:47:46.370Z,21.47
2018-12-14T15:50:22.434Z,17.63
2018-12-14T15:52:58.642Z,18.63
2018-12-14T15:55:30.924Z,19.43
2018-12-14T15:58:03.077Z,18.80
2018-12-14T16:13:18.661Z,21.67
2018-12-14T16:15:50.854Z,23.60
2018-12-14T16:18:22.980Z,24.60
2018-12-14T16:20:56.422Z,26.77
2018-12-14T16:23:28.406Z,25.57
2018-12-14T16:26:04.569Z,26.60
2018-12-14T16:28:37.084Z,23.20
2018-12-14T16:31:10.670Z,24.83
2018-12-14T16:33:43.607Z,23.73
2018-12-14T16:36:19.901Z,24.33
2018-12-14T16:38:56.160Z,21.93
2018-12-14T16:41:32.520Z,21.43
2018-12-14T16:44:05.518Z,22.30
2018-12-14T16:46:37.839Z,20.10
2018-12-14T16:49:10.559Z,21.97
2018-12-14T16:51:43.394Z,20.60
2018-12-14T16:54:16.261Z,20.53
2018-12-14T16:56:52.486Z,21.07
2018-12-14T16:59:24.590Z,21.93
2018-12-14T17:01:56.915Z,23.60
2018-12-14T17:04:29.348Z,23.37
2018-12-14T17:07:02.165Z,23.70
2018-12-14T17:09:38.343Z,23.57
2018-12-14T17:12:14.659Z,23.73
2018-12-14T17:17:32.872Z,24.73
2018-12-14T17:20:10.480Z,25.03
2018-12-14T17:22:50.779Z,26.20
2018-12-14T17:25:25.702Z,24.20
2018-12-14T17:28:06.526Z,25.67
2018-12-14T17:30:44.173Z,25.07
2018-12-14T17:33:19.018Z,23.67
2018-12-14T17:35:55.122Z,22.60
2018-12-14T17:38:35.386Z,23.17
2018-12-14T17:41:08.617Z,21.37
2018-12-14T17:43:51.353Z,22.83
2018-12-14T17:46:25.629Z,20.80
2018-12-14T17:48:59.107Z,20.53
2018-12-14T17:51:36.849Z,21.00
2018-12-14T17:54:19.327Z,20.33
2018-12-14T17:56:53.955Z,18.43
2018-12-14T17:59:27.263Z,17.37
2018-12-14T18:02:04.135Z,17.60
2018-12-14T18:04:37.500Z,16.80
2018-12-14T18:07:09.583Z,15.33
2018-12-14T18:09:44.225Z,17.20
2018-12-14T18:12:22.097Z,16.33
2018-12-14T18:14:59.452Z,17.20
2018-12-14T18:17:32.451Z,17.27
2018-12-14T18:20:06.418Z,16.67
2018-12-14T18:22:39.310Z,19.10
2018-12-14T18:25:16.758Z,16.77
2018-12-14T18:27:49.748Z,17.37
2018-12-14T18:30:23.786Z,17.37
2018-12-14T18:33:00.216Z,16.97
2018-12-14T18:35:38.632Z,16.00
2018-12-14T18:38:11.523Z,17.13
2018-12-14T18:40:47.880Z,17.43
2018-12-14T18:43:24.121Z,17.50
2018-12-14T18:46:02.943Z,17.30
2018-12-14T18:48:40.033Z,16.97
2018-12-14T18:51:16.646Z,15.53
2018-12-14T18:53:56.374Z,16.40
2018-12-14T18:56:29.599Z,15.43
2018-12-14T18:59:02.769Z,14.80
2018-12-14T19:03:23.988Z,16.43
2018-12-14T19:05:57.177Z,16.07
2018-12-14T19:08:30.143Z,16.57
2018-12-14T19:11:02.632Z,16.60
2018-12-14T19:13:35.632Z,17.00
2018-12-14T19:16:11.901Z,17.33
2018-12-14T19:18:48.131Z,15.63
2018-12-14T19:22:58.989Z,15.83
2018-12-14T19:25:31.904Z,16.17
2018-12-14T19:28:06.653Z,17.20
2018-12-14T19:30:39.438Z,17.10
2018-12-14T19:34:40.437Z,13.43
2018-12-14T19:40:28.817Z,6.50
2018-12-14T19:46:52.837Z,11.63
2018-12-14T19:49:25.086Z,11.77
2018-12-14T19:52:01.724Z,10.43
2018-12-14T19:54:34.591Z,12.70
2018-12-14T19:57:06.777Z,12.27
2018-12-14T19:59:38.950Z,11.83
2018-12-14T20:02:12.074Z,12.90
2018-12-14T20:04:48.778Z,11.63
2018-12-14T20:07:21.399Z,12.37
2018-12-14T20:09:53.697Z,14.27
2018-12-14T20:12:26.420Z,16.30
2018-12-14T20:15:02.557Z,16.77
2018-12-14T20:17:39.759Z,16.43
2018-12-14T20:20:10.188Z,17.90
2018-12-14T20:22:46.564Z,19.70
2018-12-14T20:25:19.440Z,21.27
2018-12-14T20:27:56.602Z,20.07
2018-12-14T20:30:29.655Z,22.27
2018-12-14T20:33:01.896Z,22.70
2018-12-14T20:35:39.120Z,23.17
2018-12-14T20:38:12.194Z,22.47
2018-12-14T20:40:48.446Z,24.30
2018-12-14T20:43:21.031Z,24.77
2018-12-14T20:45:57.948Z,23.10
2018-12-14T20:48:28.189Z,23.30
2018-12-14T20:51:04.370Z,24.93
2018-12-14T20:53:37.894Z,23.60
2018-12-14T20:56:15.769Z,25.47
2018-12-14T20:58:48.436Z,23.60
2018-12-14T21:01:22.377Z,23.43
2018-12-14T21:03:55.565Z,23.67
2018-12-14T21:06:29.219Z,24.40
2018-12-14T21:09:02.413Z,24.17
2018-12-14T21:11:38.766Z,25.80
2018-12-14T21:14:19.850Z,26.00
2018-12-14T21:16:55.462Z,25.77
2018-12-14T21:19:32.719Z,25.40
2018-12-14T21:22:11.711Z,26.80
2018-12-14T21:24:45.795Z,26.50
2018-12-14T21:27:19.112Z,23.97
2018-12-14T21:29:52.126Z,22.70
2018-12-14T21:32:24.919Z,23.00
2018-12-14T21:34:59.324Z,21.20
2018-12-14T21:37:30.871Z,22.53
2018-12-14T21:40:04.373Z,23.07
2018-12-14T21:42:37.101Z,23.33
2018-12-14T21:45:24.727Z,23.10
2018-12-14T21:47:59.373Z,24.20
2018-12-14T21:50:39.912Z,24.87
2018-12-14T21:53:17.620Z,25.00
2018-12-14T21:55:55.744Z,23.77
2018-12-14T21:58:36.642Z,23.60
2018-12-14T22:01:12.562Z,22.70
2018-12-14T22:03:57.163Z,24.27
2018-12-14T22:06:36.262Z,23.77
2018-12-14T22:09:18.755Z,24.33
2018-12-14T22:11:57.125Z,26.33
2018-12-14T22:14:37.096Z,25.10
2018-12-14T22:17:09.876Z,25.43
2018-12-14T22:19:53.601Z,23.97
2018-12-14T22:22:37.865Z,25.30
2018-12-14T22:25:12.235Z,22.97
2018-12-14T22:27:48.607Z,23.93
2018-12-14T22:30:25.388Z,24.23
2018-12-14T22:32:57.740Z,21.97
2018-12-14T22:35:34.756Z,25.17
2018-12-14T22:38:07.630Z,23.43
2018-12-14T22:40:40.691Z,25.97
2018-12-14T22:43:13.057Z,27.57
2018-12-14T22:45:45.331Z,27.63
2018-12-14T22:48:21.980Z,25.57
2018-12-14T22:50:54.957Z,25.40
2018-12-14T22:53:27.260Z,24.97
2018-12-14T22:56:03.433Z,25.43
2018-12-14T22:58:40.098Z,26.60
2018-12-14T23:01:12.747Z,26.90
2018-12-14T23:03:49.626Z,26.80
2018-12-14T23:06:20.698Z,25.50
2018-12-14T23:08:57.706Z,27.10
2018-12-14T23:11:29.853Z,25.53
2018-12-14T23:14:03.058Z,26.93
2018-12-14T23:16:33.324Z,26.37
2018-12-14T23:19:06.447Z,24.37
2018-12-14T23:21:39.623Z,24.90
2018-12-14T23:24:12.700Z,24.63
2018-12-14T23:26:44.831Z,25.50
2018-12-14T23:29:17.154Z,24.23
2018-12-14T23:31:49.581Z,25.00
2018-12-14T23:34:21.697Z,23.53
2018-12-14T23:36:53.939Z,22.03
2018-12-14T23:39:24.668Z,24.87
2018-12-14T23:41:57.324Z,22.90
2018-12-14T23:44:29.670Z,23.90
2018-12-14T23:47:06.648Z,23.70
2018-12-14T23:49:43.071Z,23.10
2018-12-14T23:52:19.154Z,23.73
2018-12-14T23:54:51.336Z,23.60
2018-12-14T23:57:27.621Z,24.63
